sensor_id;sensor_type;location;lat;lon;timestamp;P1;durP1;ratioP1;P2;durP2;ratioP2
75634;SDS011;64227;48.724;9.104;2024-03-02T00:00:03;6.93;;;4.45;;
75634;SDS011;64227;48.724;9.104;2024-03-02T00:02:40;7.63;;;4.70;;
75634;SDS011;64227;48.724;9.104;2024-03-02T00:05:06;5.45;;;3.83;;
75634;SDS011;64227;48.724;9.104;2024-03-02T00:07:31;6.03;;;4.00;;
75634;SDS011;64227;48.724;9.104;2024-03-02T00:09:57;6.60;;;4.05;;
75634;SDS011;64227;48.724;9.104;2024-03-02T00:12:22;6.68;;;4.43;;
75634;SDS011;64227;48.724;9.104;2024-03-02T00:14:47;8.52;;;4.28;;
75634;SDS011;64227;48.724;9.104;2024-03-02T00:17:17;6.65;;;3.63;;
75634;SDS011;64227;48.724;9.104;2024-03-02T00:19:46;6.28;;;4.43;;
75634;SDS011;64227;48.724;9.104;2024-03-02T00:22:11;6.82;;;3.90;;
75634;SDS011;64227;48.724;9.104;2024-03-02T00:24:37;8.50;;;4.25;;
75634;SDS011;64227;48.724;9.104;2024-03-02T00:27:03;7.35;;;4.65;;
75634;SDS011;64227;48.724;9.104;2024-03-02T00:29:29;6.60;;;4.00;;
75634;SDS011;64227;48.724;9.104;2024-03-02T00:31:54;6.80;;;4.20;;
75634;SDS011;64227;48.724;9.104;2024-03-02T00:34:20;6.20;;;3.25;;
75634;SDS011;64227;48.724;9.104;2024-03-02T00:36:46;7.63;;;4.32;;
75634;SDS011;64227;48.724;9.104;2024-03-02T00:39:12;6.70;;;4.20;;
75634;SDS011;64227;48.724;9.104;2024-03-02T00:41:40;7.55;;;4.18;;
75634;SDS011;64227;48.724;9.104;2024-03-02T00:44:07;6.55;;;4.25;;
75634;SDS011;64227;48.724;9.104;2024-03-02T00:46:36;7.13;;;4.43;;
75634;SDS011;64227;48.724;9.104;2024-03-02T00:49:03;8.55;;;4.20;;
75634;SDS011;64227;48.724;9.104;2024-03-02T00:51:29;6.47;;;4.20;;
75634;SDS011;64227;48.724;9.104;2024-03-02T00:53:57;6.07;;;4.78;;
75634;SDS011;64227;48.724;9.104;2024-03-02T00:56:24;8.35;;;4.35;;
75634;SDS011;64227;48.724;9.104;2024-03-02T00:58:50;6.95;;;4.38;;
75634;SDS011;64227;48.724;9.104;2024-03-02T01:01:15;8.90;;;4.13;;
75634;SDS011;64227;48.724;9.104;2024-03-02T01:03:41;7.15;;;3.88;;
75634;SDS011;64227;48.724;9.104;2024-03-02T01:06:07;9.75;;;4.85;;
75634;SDS011;64227;48.724;9.104;2024-03-02T01:08:36;7.20;;;4.22;;
75634;SDS011;64227;48.724;9.104;2024-03-02T01:11:01;8.95;;;4.82;;
75634;SDS011;64227;48.724;9.104;2024-03-02T01:13:27;7.10;;;4.60;;
75634;SDS011;64227;48.724;9.104;2024-03-02T01:15:53;9.68;;;4.80;;
75634;SDS011;64227;48.724;9.104;2024-03-02T01:18:18;7.38;;;4.32;;
75634;SDS011;64227;48.724;9.104;2024-03-02T01:20:44;8.60;;;5.22;;
75634;SDS011;64227;48.724;9.104;2024-03-02T01:23:09;8.45;;;4.35;;
75634;SDS011;64227;48.724;9.104;2024-03-02T01:25:34;9.23;;;5.20;;
75634;SDS011;64227;48.724;9.104;2024-03-02T01:28:00;8.75;;;4.72;;
75634;SDS011;64227;48.724;9.104;2024-03-02T01:30:26;8.07;;;5.05;;
75634;SDS011;64227;48.724;9.104;2024-03-02T01:32:51;8.70;;;4.85;;
75634;SDS011;64227;48.724;9.104;2024-03-02T01:35:16;9.02;;;4.90;;
75634;SDS011;64227;48.724;9.104;2024-03-02T01:37:42;8.30;;;4.18;;
75634;SDS011;64227;48.724;9.104;2024-03-02T01:40:07;9.90;;;5.20;;
75634;SDS011;64227;48.724;9.104;2024-03-02T01:42:36;8.23;;;5.30;;
75634;SDS011;64227;48.724;9.104;2024-03-02T01:45:02;9.73;;;5.72;;
75634;SDS011;64227;48.724;9.104;2024-03-02T01:47:29;7.43;;;4.90;;
75634;SDS011;64227;48.724;9.104;2024-03-02T01:49:55;8.63;;;5.05;;
75634;SDS011;64227;48.724;9.104;2024-03-02T01:52:20;8.82;;;4.78;;
75634;SDS011;64227;48.724;9.104;2024-03-02T01:54:45;8.85;;;4.97;;
75634;SDS011;64227;48.724;9.104;2024-03-02T01:57:11;8.48;;;4.53;;
75634;SDS011;64227;48.724;9.104;2024-03-02T01:59:36;7.18;;;4.53;;
75634;SDS011;64227;48.724;9.104;2024-03-02T02:02:01;9.55;;;4.75;;
75634;SDS011;64227;48.724;9.104;2024-03-02T02:04:27;9.40;;;5.07;;
75634;SDS011;64227;48.724;9.104;2024-03-02T02:06:53;9.68;;;5.40;;
75634;SDS011;64227;48.724;9.104;2024-03-02T02:09:19;9.77;;;5.28;;
75634;SDS011;64227;48.724;9.104;2024-03-02T02:11:44;12.77;;;5.78;;
75634;SDS011;64227;48.724;9.104;2024-03-02T02:14:09;8.85;;;5.20;;
75634;SDS011;64227;48.724;9.104;2024-03-02T02:16:35;8.88;;;5.32;;
75634;SDS011;64227;48.724;9.104;2024-03-02T02:19:01;8.30;;;5.00;;
75634;SDS011;64227;48.724;9.104;2024-03-02T02:21:26;11.82;;;5.75;;
75634;SDS011;64227;48.724;9.104;2024-03-02T02:23:52;10.80;;;6.40;;
75634;SDS011;64227;48.724;9.104;2024-03-02T02:26:17;12.02;;;6.18;;
75634;SDS011;64227;48.724;9.104;2024-03-02T02:28:43;11.00;;;6.10;;
75634;SDS011;64227;48.724;9.104;2024-03-02T02:31:12;11.40;;;6.35;;
75634;SDS011;64227;48.724;9.104;2024-03-02T02:33:40;11.18;;;5.57;;
75634;SDS011;64227;48.724;9.104;2024-03-02T02:36:05;10.77;;;5.53;;
75634;SDS011;64227;48.724;9.104;2024-03-02T02:38:32;10.27;;;5.85;;
75634;SDS011;64227;48.724;9.104;2024-03-02T02:40:58;10.02;;;5.68;;
75634;SDS011;64227;48.724;9.104;2024-03-02T02:43:23;11.35;;;6.50;;
75634;SDS011;64227;48.724;9.104;2024-03-02T02:45:49;10.05;;;5.82;;
75634;SDS011;64227;48.724;9.104;2024-03-02T02:48:14;12.77;;;6.43;;
75634;SDS011;64227;48.724;9.104;2024-03-02T02:50:39;11.48;;;6.25;;
75634;SDS011;64227;48.724;9.104;2024-03-02T02:53:06;9.88;;;6.05;;
75634;SDS011;64227;48.724;9.104;2024-03-02T02:55:34;10.75;;;6.30;;
75634;SDS011;64227;48.724;9.104;2024-03-02T02:57:59;10.10;;;5.72;;
75634;SDS011;64227;48.724;9.104;2024-03-02T03:00:25;11.82;;;6.10;;
75634;SDS011;64227;48.724;9.104;2024-03-02T03:02:50;10.57;;;5.68;;
75634;SDS011;64227;48.724;9.104;2024-03-02T03:05:16;11.95;;;6.07;;
75634;SDS011;64227;48.724;9.104;2024-03-02T03:07:42;11.88;;;6.45;;
75634;SDS011;64227;48.724;9.104;2024-03-02T03:10:09;9.93;;;5.60;;
75634;SDS011;64227;48.724;9.104;2024-03-02T03:12:34;10.73;;;6.03;;
75634;SDS011;64227;48.724;9.104;2024-03-02T03:15:00;11.25;;;6.20;;
75634;SDS011;64227;48.724;9.104;2024-03-02T03:17:25;11.70;;;6.00;;
75634;SDS011;64227;48.724;9.104;2024-03-02T03:19:52;12.93;;;6.22;;
75634;SDS011;64227;48.724;9.104;2024-03-02T03:22:17;11.05;;;6.25;;
75634;SDS011;64227;48.724;9.104;2024-03-02T03:24:42;10.52;;;5.78;;
75634;SDS011;64227;48.724;9.104;2024-03-02T03:27:08;10.82;;;6.00;;
75634;SDS011;64227;48.724;9.104;2024-03-02T03:29:34;9.70;;;6.05;;
75634;SDS011;64227;48.724;9.104;2024-03-02T03:32:01;11.10;;;5.90;;
75634;SDS011;64227;48.724;9.104;2024-03-02T03:34:26;10.73;;;5.97;;
75634;SDS011;64227;48.724;9.104;2024-03-02T03:36:54;13.60;;;5.80;;
75634;SDS011;64227;48.724;9.104;2024-03-02T03:39:19;10.98;;;6.35;;
75634;SDS011;64227;48.724;9.104;2024-03-02T03:41:44;10.70;;;6.47;;
75634;SDS011;64227;48.724;9.104;2024-03-02T03:44:10;12.55;;;5.78;;
75634;SDS011;64227;48.724;9.104;2024-03-02T03:46:35;8.82;;;5.32;;
75634;SDS011;64227;48.724;9.104;2024-03-02T03:49:00;11.02;;;5.35;;
75634;SDS011;64227;48.724;9.104;2024-03-02T03:51:26;13.52;;;5.78;;
75634;SDS011;64227;48.724;9.104;2024-03-02T03:53:51;9.05;;;5.30;;
75634;SDS011;64227;48.724;9.104;2024-03-02T03:56:16;12.27;;;6.22;;
75634;SDS011;64227;48.724;9.104;2024-03-02T03:58:42;10.68;;;5.97;;
75634;SDS011;64227;48.724;9.104;2024-03-02T04:01:07;9.27;;;5.15;;
75634;SDS011;64227;48.724;9.104;2024-03-02T04:03:33;11.90;;;6.35;;
75634;SDS011;64227;48.724;9.104;2024-03-02T04:05:58;11.20;;;5.82;;
75634;SDS011;64227;48.724;9.104;2024-03-02T04:08:23;11.13;;;5.70;;
75634;SDS011;64227;48.724;9.104;2024-03-02T04:10:49;9.13;;;5.15;;
75634;SDS011;64227;48.724;9.104;2024-03-02T04:13:14;9.00;;;5.75;;
75634;SDS011;64227;48.724;9.104;2024-03-02T04:15:39;8.82;;;5.25;;
75634;SDS011;64227;48.724;9.104;2024-03-02T04:18:05;10.73;;;5.63;;
75634;SDS011;64227;48.724;9.104;2024-03-02T04:20:31;8.80;;;5.20;;
75634;SDS011;64227;48.724;9.104;2024-03-02T04:22:56;11.02;;;4.95;;
75634;SDS011;64227;48.724;9.104;2024-03-02T04:25:21;9.27;;;5.18;;
75634;SDS011;64227;48.724;9.104;2024-03-02T04:27:47;9.32;;;5.65;;
75634;SDS011;64227;48.724;9.104;2024-03-02T04:30:12;8.52;;;5.28;;
75634;SDS011;64227;48.724;9.104;2024-03-02T04:32:38;9.60;;;5.38;;
75634;SDS011;64227;48.724;9.104;2024-03-02T04:35:04;10.65;;;5.78;;
75634;SDS011;64227;48.724;9.104;2024-03-02T04:37:30;8.63;;;5.13;;
75634;SDS011;64227;48.724;9.104;2024-03-02T04:39:55;9.18;;;5.13;;
75634;SDS011;64227;48.724;9.104;2024-03-02T04:42:21;8.93;;;5.07;;
75634;SDS011;64227;48.724;9.104;2024-03-02T04:44:47;10.73;;;4.72;;
75634;SDS011;64227;48.724;9.104;2024-03-02T04:47:12;8.52;;;4.97;;
75634;SDS011;64227;48.724;9.104;2024-03-02T04:49:38;9.63;;;6.30;;
75634;SDS011;64227;48.724;9.104;2024-03-02T04:52:03;10.13;;;4.78;;
75634;SDS011;64227;48.724;9.104;2024-03-02T04:54:29;8.30;;;4.65;;
75634;SDS011;64227;48.724;9.104;2024-03-02T04:56:54;8.50;;;4.82;;
75634;SDS011;64227;48.724;9.104;2024-03-02T04:59:19;9.20;;;4.55;;
75634;SDS011;64227;48.724;9.104;2024-03-02T05:01:45;11.68;;;6.00;;
75634;SDS011;64227;48.724;9.104;2024-03-02T05:04:10;11.40;;;5.28;;
75634;SDS011;64227;48.724;9.104;2024-03-02T05:06:37;9.18;;;5.50;;
75634;SDS011;64227;48.724;9.104;2024-03-02T05:09:03;9.85;;;5.32;;
75634;SDS011;64227;48.724;9.104;2024-03-02T05:11:28;11.02;;;5.97;;
75634;SDS011;64227;48.724;9.104;2024-03-02T05:14:11;10.00;;;5.72;;
75634;SDS011;64227;48.724;9.104;2024-03-02T05:16:36;10.80;;;5.47;;
75634;SDS011;64227;48.724;9.104;2024-03-02T05:19:03;12.23;;;5.72;;
75634;SDS011;64227;48.724;9.104;2024-03-02T05:21:31;10.95;;;5.97;;
75634;SDS011;64227;48.724;9.104;2024-03-02T05:23:57;9.50;;;5.28;;
75634;SDS011;64227;48.724;9.104;2024-03-02T05:26:22;11.93;;;5.88;;
75634;SDS011;64227;48.724;9.104;2024-03-02T05:28:47;11.00;;;5.63;;
75634;SDS011;64227;48.724;9.104;2024-03-02T05:31:14;10.05;;;5.75;;
75634;SDS011;64227;48.724;9.104;2024-03-02T05:33:40;11.32;;;5.80;;
75634;SDS011;64227;48.724;9.104;2024-03-02T05:36:06;12.10;;;6.35;;
75634;SDS011;64227;48.724;9.104;2024-03-02T05:38:32;10.02;;;5.40;;
75634;SDS011;64227;48.724;9.104;2024-03-02T05:40:59;10.85;;;5.28;;
75634;SDS011;64227;48.724;9.104;2024-03-02T05:43:24;10.07;;;5.28;;
75634;SDS011;64227;48.724;9.104;2024-03-02T05:45:50;9.57;;;5.72;;
75634;SDS011;64227;48.724;9.104;2024-03-02T05:48:15;9.98;;;5.57;;
75634;SDS011;64227;48.724;9.104;2024-03-02T05:50:40;10.02;;;4.95;;
75634;SDS011;64227;48.724;9.104;2024-03-02T05:53:06;9.85;;;5.38;;
75634;SDS011;64227;48.724;9.104;2024-03-02T05:55:31;9.32;;;5.93;;
75634;SDS011;64227;48.724;9.104;2024-03-02T05:57:56;9.50;;;5.20;;
75634;SDS011;64227;48.724;9.104;2024-03-02T06:00:31;9.15;;;4.88;;
75634;SDS011;64227;48.724;9.104;2024-03-02T06:02:56;8.98;;;4.85;;
75634;SDS011;64227;48.724;9.104;2024-03-02T06:05:22;10.68;;;5.38;;
75634;SDS011;64227;48.724;9.104;2024-03-02T06:07:47;9.82;;;4.85;;
75634;SDS011;64227;48.724;9.104;2024-03-02T06:10:12;7.80;;;4.68;;
75634;SDS011;64227;48.724;9.104;2024-03-02T06:12:38;9.93;;;5.07;;
75634;SDS011;64227;48.724;9.104;2024-03-02T06:15:03;11.07;;;5.65;;
75634;SDS011;64227;48.724;9.104;2024-03-02T06:17:29;9.65;;;5.22;;
75634;SDS011;64227;48.724;9.104;2024-03-02T06:19:54;9.20;;;5.18;;
75634;SDS011;64227;48.724;9.104;2024-03-02T06:22:20;10.88;;;5.75;;
75634;SDS011;64227;48.724;9.104;2024-03-02T06:24:46;8.43;;;4.63;;
75634;SDS011;64227;48.724;9.104;2024-03-02T06:27:11;9.32;;;4.68;;
75634;SDS011;64227;48.724;9.104;2024-03-02T06:29:37;8.40;;;4.95;;
75634;SDS011;64227;48.724;9.104;2024-03-02T06:32:02;8.63;;;4.82;;
75634;SDS011;64227;48.724;9.104;2024-03-02T06:34:27;8.77;;;4.72;;
75634;SDS011;64227;48.724;9.104;2024-03-02T06:36:53;9.45;;;4.35;;
75634;SDS011;64227;48.724;9.104;2024-03-02T06:39:18;9.25;;;4.55;;
75634;SDS011;64227;48.724;9.104;2024-03-02T06:41:44;9.55;;;5.60;;
75634;SDS011;64227;48.724;9.104;2024-03-02T06:44:09;9.65;;;5.38;;
75634;SDS011;64227;48.724;9.104;2024-03-02T06:46:34;8.90;;;4.63;;
75634;SDS011;64227;48.724;9.104;2024-03-02T06:49:00;9.80;;;5.20;;
75634;SDS011;64227;48.724;9.104;2024-03-02T06:51:27;9.25;;;5.35;;
75634;SDS011;64227;48.724;9.104;2024-03-02T06:53:52;10.60;;;5.65;;
75634;SDS011;64227;48.724;9.104;2024-03-02T06:56:18;10.10;;;5.13;;
75634;SDS011;64227;48.724;9.104;2024-03-02T06:58:43;7.32;;;4.80;;
75634;SDS011;64227;48.724;9.104;2024-03-02T07:01:08;9.77;;;5.13;;
75634;SDS011;64227;48.724;9.104;2024-03-02T07:03:34;8.82;;;5.38;;
75634;SDS011;64227;48.724;9.104;2024-03-02T07:06:00;9.63;;;5.68;;
75634;SDS011;64227;48.724;9.104;2024-03-02T07:08:28;9.85;;;5.55;;
75634;SDS011;64227;48.724;9.104;2024-03-02T07:10:53;11.55;;;5.50;;
75634;SDS011;64227;48.724;9.104;2024-03-02T07:13:19;13.00;;;6.18;;
75634;SDS011;64227;48.724;9.104;2024-03-02T07:15:53;12.15;;;5.93;;
75634;SDS011;64227;48.724;9.104;2024-03-02T07:18:27;9.77;;;5.68;;
75634;SDS011;64227;48.724;9.104;2024-03-02T07:20:52;12.02;;;5.22;;
75634;SDS011;64227;48.724;9.104;2024-03-02T07:23:18;10.63;;;5.45;;
75634;SDS011;64227;48.724;9.104;2024-03-02T07:25:44;9.63;;;5.05;;
75634;SDS011;64227;48.724;9.104;2024-03-02T07:28:09;9.88;;;5.07;;
75634;SDS011;64227;48.724;9.104;2024-03-02T07:30:35;7.93;;;4.43;;
75634;SDS011;64227;48.724;9.104;2024-03-02T07:33:01;7.25;;;4.40;;
75634;SDS011;64227;48.724;9.104;2024-03-02T07:35:26;7.85;;;4.13;;
75634;SDS011;64227;48.724;9.104;2024-03-02T07:37:52;6.38;;;3.83;;
75634;SDS011;64227;48.724;9.104;2024-03-02T07:40:18;7.53;;;4.00;;
75634;SDS011;64227;48.724;9.104;2024-03-02T07:42:44;6.90;;;4.57;;
75634;SDS011;64227;48.724;9.104;2024-03-02T07:45:10;6.57;;;4.05;;
75634;SDS011;64227;48.724;9.104;2024-03-02T07:47:35;8.23;;;4.05;;
75634;SDS011;64227;48.724;9.104;2024-03-02T07:50:01;8.27;;;4.95;;
75634;SDS011;64227;48.724;9.104;2024-03-02T07:52:27;8.30;;;4.70;;
75634;SDS011;64227;48.724;9.104;2024-03-02T07:54:52;6.85;;;3.90;;
75634;SDS011;64227;48.724;9.104;2024-03-02T07:57:17;6.03;;;3.95;;
75634;SDS011;64227;48.724;9.104;2024-03-02T07:59:43;7.88;;;3.95;;
75634;SDS011;64227;48.724;9.104;2024-03-02T08:02:08;7.38;;;4.25;;
75634;SDS011;64227;48.724;9.104;2024-03-02T08:04:33;9.10;;;4.53;;
75634;SDS011;64227;48.724;9.104;2024-03-02T08:06:59;6.43;;;4.00;;
75634;SDS011;64227;48.724;9.104;2024-03-02T08:09:24;6.50;;;4.28;;
75634;SDS011;64227;48.724;9.104;2024-03-02T08:11:50;7.05;;;4.00;;
75634;SDS011;64227;48.724;9.104;2024-03-02T08:14:16;6.55;;;3.75;;
75634;SDS011;64227;48.724;9.104;2024-03-02T08:16:41;6.50;;;4.13;;
75634;SDS011;64227;48.724;9.104;2024-03-02T08:19:07;6.15;;;3.60;;
75634;SDS011;64227;48.724;9.104;2024-03-02T08:21:34;5.20;;;3.40;;
75634;SDS011;64227;48.724;9.104;2024-03-02T08:24:00;7.05;;;4.05;;
75634;SDS011;64227;48.724;9.104;2024-03-02T08:26:26;6.10;;;3.60;;
75634;SDS011;64227;48.724;9.104;2024-03-02T08:28:54;6.35;;;3.53;;
75634;SDS011;64227;48.724;9.104;2024-03-02T08:31:19;5.10;;;3.00;;
75634;SDS011;64227;48.724;9.104;2024-03-02T08:33:44;6.45;;;3.25;;
75634;SDS011;64227;48.724;9.104;2024-03-02T08:36:10;6.18;;;3.40;;
75634;SDS011;64227;48.724;9.104;2024-03-02T08:38:35;4.90;;;3.05;;
75634;SDS011;64227;48.724;9.104;2024-03-02T08:41:00;4.28;;;2.88;;
75634;SDS011;64227;48.724;9.104;2024-03-02T08:43:26;4.95;;;3.47;;
75634;SDS011;64227;48.724;9.104;2024-03-02T08:45:51;3.80;;;3.03;;
75634;SDS011;64227;48.724;9.104;2024-03-02T08:48:16;4.40;;;2.88;;
75634;SDS011;64227;48.724;9.104;2024-03-02T08:50:42;4.13;;;3.03;;
75634;SDS011;64227;48.724;9.104;2024-03-02T08:53:08;3.97;;;2.45;;
75634;SDS011;64227;48.724;9.104;2024-03-02T08:55:33;4.82;;;2.95;;
75634;SDS011;64227;48.724;9.104;2024-03-02T08:57:58;4.35;;;2.67;;
75634;SDS011;64227;48.724;9.104;2024-03-02T09:00:24;4.75;;;2.42;;
75634;SDS011;64227;48.724;9.104;2024-03-02T09:02:49;4.22;;;2.60;;
75634;SDS011;64227;48.724;9.104;2024-03-02T09:05:15;2.70;;;2.10;;
75634;SDS011;64227;48.724;9.104;2024-03-02T09:07:40;3.03;;;2.28;;
75634;SDS011;64227;48.724;9.104;2024-03-02T09:10:06;2.65;;;1.92;;
75634;SDS011;64227;48.724;9.104;2024-03-02T09:12:32;3.10;;;2.25;;
75634;SDS011;64227;48.724;9.104;2024-03-02T09:14:58;2.60;;;2.20;;
75634;SDS011;64227;48.724;9.104;2024-03-02T09:17:25;2.85;;;2.15;;
75634;SDS011;64227;48.724;9.104;2024-03-02T09:19:50;2.88;;;2.15;;
75634;SDS011;64227;48.724;9.104;2024-03-02T09:22:17;2.80;;;2.10;;
75634;SDS011;64227;48.724;9.104;2024-03-02T09:24:43;3.33;;;2.38;;
75634;SDS011;64227;48.724;9.104;2024-03-02T09:27:08;3.60;;;2.05;;
75634;SDS011;64227;48.724;9.104;2024-03-02T09:29:34;3.95;;;2.13;;
75634;SDS011;64227;48.724;9.104;2024-03-02T09:31:59;2.63;;;1.75;;
75634;SDS011;64227;48.724;9.104;2024-03-02T09:34:24;3.15;;;1.67;;
75634;SDS011;64227;48.724;9.104;2024-03-02T09:36:50;2.85;;;1.90;;
75634;SDS011;64227;48.724;9.104;2024-03-02T09:39:16;2.15;;;1.95;;
75634;SDS011;64227;48.724;9.104;2024-03-02T09:41:42;2.50;;;1.90;;
75634;SDS011;64227;48.724;9.104;2024-03-02T09:44:08;2.45;;;1.90;;
75634;SDS011;64227;48.724;9.104;2024-03-02T09:46:33;1.92;;;1.63;;
75634;SDS011;64227;48.724;9.104;2024-03-02T09:49:00;2.63;;;1.75;;
75634;SDS011;64227;48.724;9.104;2024-03-02T09:51:25;2.00;;;1.80;;
75634;SDS011;64227;48.724;9.104;2024-03-02T09:53:51;2.22;;;1.88;;
75634;SDS011;64227;48.724;9.104;2024-03-02T09:56:16;1.70;;;1.60;;
75634;SDS011;64227;48.724;9.104;2024-03-02T09:58:43;1.73;;;1.50;;
75634;SDS011;64227;48.724;9.104;2024-03-02T10:01:09;2.03;;;1.40;;
75634;SDS011;64227;48.724;9.104;2024-03-02T10:03:35;3.47;;;1.83;;
75634;SDS011;64227;48.724;9.104;2024-03-02T10:08:49;1.85;;;1.10;;
75634;SDS011;64227;48.724;9.104;2024-03-02T10:11:25;2.05;;;1.58;;
75634;SDS011;64227;48.724;9.104;2024-03-02T10:14:10;2.42;;;1.40;;
75634;SDS011;64227;48.724;9.104;2024-03-02T10:16:37;1.48;;;1.38;;
75634;SDS011;64227;48.724;9.104;2024-03-02T10:19:24;1.70;;;1.58;;
75634;SDS011;64227;48.724;9.104;2024-03-02T10:21:53;1.27;;;1.17;;
75634;SDS011;64227;48.724;9.104;2024-03-02T10:27:49;2.85;;;1.20;;
75634;SDS011;64227;48.724;9.104;2024-03-02T10:30:15;1.27;;;1.17;;
75634;SDS011;64227;48.724;9.104;2024-03-02T10:32:40;2.35;;;1.30;;
75634;SDS011;64227;48.724;9.104;2024-03-02T10:35:06;0.98;;;0.98;;
75634;SDS011;64227;48.724;9.104;2024-03-02T10:37:31;1.95;;;1.20;;
75634;SDS011;64227;48.724;9.104;2024-03-02T10:39:57;1.13;;;1.00;;
75634;SDS011;64227;48.724;9.104;2024-03-02T10:42:29;1.23;;;1.00;;
75634;SDS011;64227;48.724;9.104;2024-03-02T10:44:55;1.33;;;0.90;;
75634;SDS011;64227;48.724;9.104;2024-03-02T10:47:27;0.93;;;0.90;;
75634;SDS011;64227;48.724;9.104;2024-03-02T10:49:54;1.15;;;1.05;;
75634;SDS011;64227;48.724;9.104;2024-03-02T10:52:23;0.88;;;0.85;;
75634;SDS011;64227;48.724;9.104;2024-03-02T10:54:48;1.00;;;0.90;;
75634;SDS011;64227;48.724;9.104;2024-03-02T10:57:13;1.38;;;0.82;;
75634;SDS011;64227;48.724;9.104;2024-03-02T10:59:44;0.90;;;0.80;;
75634;SDS011;64227;48.724;9.104;2024-03-02T11:02:18;1.10;;;0.70;;
75634;SDS011;64227;48.724;9.104;2024-03-02T11:04:46;1.13;;;0.90;;
75634;SDS011;64227;48.724;9.104;2024-03-02T11:09:45;1.67;;;1.57;;
75634;SDS011;64227;48.724;9.104;2024-03-02T11:12:31;1.45;;;1.20;;
75634;SDS011;64227;48.724;9.104;2024-03-02T11:15:02;1.20;;;1.10;;
75634;SDS011;64227;48.724;9.104;2024-03-02T11:17:31;1.15;;;1.05;;
75634;SDS011;64227;48.724;9.104;2024-03-02T11:19:56;1.20;;;0.93;;
75634;SDS011;64227;48.724;9.104;2024-03-02T11:22:22;0.50;;;0.50;;
75634;SDS011;64227;48.724;9.104;2024-03-02T11:24:51;0.60;;;0.60;;
75634;SDS011;64227;48.724;9.104;2024-03-02T11:30:47;1.05;;;0.60;;
75634;SDS011;64227;48.724;9.104;2024-03-02T11:33:05;1.48;;;0.80;;
75634;SDS011;64227;48.724;9.104;2024-03-02T11:35:34;2.50;;;0.93;;
75634;SDS011;64227;48.724;9.104;2024-03-02T11:38:00;1.23;;;1.10;;
75634;SDS011;64227;48.724;9.104;2024-03-02T11:40:28;1.95;;;1.15;;
75634;SDS011;64227;48.724;9.104;2024-03-02T11:42:54;1.88;;;1.10;;
75634;SDS011;64227;48.724;9.104;2024-03-02T11:45:23;1.92;;;1.10;;
75634;SDS011;64227;48.724;9.104;2024-03-02T11:47:56;1.52;;;0.75;;
75634;SDS011;64227;48.724;9.104;2024-03-02T11:50:57;1.40;;;0.90;;
75634;SDS011;64227;48.724;9.104;2024-03-02T11:53:17;1.13;;;0.88;;
75634;SDS011;64227;48.724;9.104;2024-03-02T11:55:44;2.90;;;1.20;;
75634;SDS011;64227;48.724;9.104;2024-03-02T11:58:11;1.98;;;1.27;;
75634;SDS011;64227;48.724;9.104;2024-03-02T12:00:37;1.83;;;1.20;;
75634;SDS011;64227;48.724;9.104;2024-03-02T12:03:04;1.27;;;1.10;;
75634;SDS011;64227;48.724;9.104;2024-03-02T12:05:33;1.20;;;1.10;;
75634;SDS011;64227;48.724;9.104;2024-03-02T12:08:04;1.70;;;1.15;;
75634;SDS011;64227;48.724;9.104;2024-03-02T12:10:31;2.25;;;1.00;;
75634;SDS011;64227;48.724;9.104;2024-03-02T12:12:57;1.38;;;0.80;;
75634;SDS011;64227;48.724;9.104;2024-03-02T12:15:25;1.50;;;0.80;;
75634;SDS011;64227;48.724;9.104;2024-03-02T12:17:54;1.10;;;0.90;;
75634;SDS011;64227;48.724;9.104;2024-03-02T12:20:21;0.98;;;0.70;;
75634;SDS011;64227;48.724;9.104;2024-03-02T12:22:48;0.82;;;0.82;;
75634;SDS011;64227;48.724;9.104;2024-03-02T12:25:14;0.85;;;0.85;;
75634;SDS011;64227;48.724;9.104;2024-03-02T12:27:40;0.77;;;0.68;;
75634;SDS011;64227;48.724;9.104;2024-03-02T12:30:06;1.00;;;0.90;;
75634;SDS011;64227;48.724;9.104;2024-03-02T12:32:35;0.63;;;0.63;;
75634;SDS011;64227;48.724;9.104;2024-03-02T12:35:03;0.80;;;0.60;;
75634;SDS011;64227;48.724;9.104;2024-03-02T12:37:29;2.10;;;0.60;;
75634;SDS011;64227;48.724;9.104;2024-03-02T12:39:55;0.90;;;0.90;;
75634;SDS011;64227;48.724;9.104;2024-03-02T12:42:20;0.65;;;0.57;;
75634;SDS011;64227;48.724;9.104;2024-03-02T12:44:46;0.90;;;0.73;;
75634;SDS011;64227;48.724;9.104;2024-03-02T12:47:11;2.00;;;0.80;;
75634;SDS011;64227;48.724;9.104;2024-03-02T12:49:38;1.30;;;1.10;;
75634;SDS011;64227;48.724;9.104;2024-03-02T12:52:05;2.65;;;0.90;;
75634;SDS011;64227;48.724;9.104;2024-03-02T12:54:30;0.68;;;0.68;;
75634;SDS011;64227;48.724;9.104;2024-03-02T12:56:56;0.90;;;0.70;;
75634;SDS011;64227;48.724;9.104;2024-03-02T12:59:23;0.60;;;0.60;;
75634;SDS011;64227;48.724;9.104;2024-03-02T13:01:51;1.25;;;0.75;;
75634;SDS011;64227;48.724;9.104;2024-03-02T13:04:21;0.70;;;0.70;;
75634;SDS011;64227;48.724;9.104;2024-03-02T13:06:56;2.58;;;0.80;;
75634;SDS011;64227;48.724;9.104;2024-03-02T13:09:25;0.93;;;0.80;;
75634;SDS011;64227;48.724;9.104;2024-03-02T13:11:50;1.20;;;0.68;;
75634;SDS011;64227;48.724;9.104;2024-03-02T13:14:15;0.77;;;0.70;;
75634;SDS011;64227;48.724;9.104;2024-03-02T13:16:41;1.95;;;0.82;;
75634;SDS011;64227;48.724;9.104;2024-03-02T13:19:07;1.25;;;1.08;;
75634;SDS011;64227;48.724;9.104;2024-03-02T13:21:33;1.10;;;0.95;;
75634;SDS011;64227;48.724;9.104;2024-03-02T13:23:59;2.42;;;1.27;;
75634;SDS011;64227;48.724;9.104;2024-03-02T13:26:25;2.10;;;1.90;;
75634;SDS011;64227;48.724;9.104;2024-03-02T13:28:50;2.28;;;1.60;;
75634;SDS011;64227;48.724;9.104;2024-03-02T13:31:16;3.20;;;2.60;;
75634;SDS011;64227;48.724;9.104;2024-03-02T13:33:41;2.45;;;1.70;;
75634;SDS011;64227;48.724;9.104;2024-03-02T13:36:07;2.63;;;1.90;;
75634;SDS011;64227;48.724;9.104;2024-03-02T13:38:32;1.65;;;1.35;;
75634;SDS011;64227;48.724;9.104;2024-03-02T13:40:58;1.07;;;0.97;;
75634;SDS011;64227;48.724;9.104;2024-03-02T13:43:25;1.08;;;0.82;;
75634;SDS011;64227;48.724;9.104;2024-03-02T13:45:50;1.58;;;0.90;;
75634;SDS011;64227;48.724;9.104;2024-03-02T13:48:17;1.27;;;1.00;;
75634;SDS011;64227;48.724;9.104;2024-03-02T13:50:42;1.10;;;0.88;;
75634;SDS011;64227;48.724;9.104;2024-03-02T13:53:07;1.08;;;0.98;;
75634;SDS011;64227;48.724;9.104;2024-03-02T13:55:33;1.52;;;1.00;;
75634;SDS011;64227;48.724;9.104;2024-03-02T13:57:59;1.02;;;0.77;;
75634;SDS011;64227;48.724;9.104;2024-03-02T14:00:24;1.23;;;1.10;;
75634;SDS011;64227;48.724;9.104;2024-03-02T14:02:50;0.93;;;0.80;;
75634;SDS011;64227;48.724;9.104;2024-03-02T14:05:15;1.38;;;0.95;;
75634;SDS011;64227;48.724;9.104;2024-03-02T14:07:42;1.08;;;0.80;;
75634;SDS011;64227;48.724;9.104;2024-03-02T14:10:08;1.20;;;0.95;;
75634;SDS011;64227;48.724;9.104;2024-03-02T14:12:34;0.63;;;0.63;;
75634;SDS011;64227;48.724;9.104;2024-03-02T14:14:59;1.02;;;0.70;;
75634;SDS011;64227;48.724;9.104;2024-03-02T14:17:27;1.80;;;0.93;;
75634;SDS011;64227;48.724;9.104;2024-03-02T14:19:52;1.67;;;0.70;;
75634;SDS011;64227;48.724;9.104;2024-03-02T14:22:18;1.25;;;0.70;;
75634;SDS011;64227;48.724;9.104;2024-03-02T14:24:44;1.08;;;0.80;;
75634;SDS011;64227;48.724;9.104;2024-03-02T14:27:09;0.77;;;0.70;;
75634;SDS011;64227;48.724;9.104;2024-03-02T14:29:35;1.92;;;0.80;;
75634;SDS011;64227;48.724;9.104;2024-03-02T14:32:02;0.80;;;0.70;;
75634;SDS011;64227;48.724;9.104;2024-03-02T14:34:28;0.70;;;0.55;;
75634;SDS011;64227;48.724;9.104;2024-03-02T14:36:54;0.88;;;0.63;;
75634;SDS011;64227;48.724;9.104;2024-03-02T14:39:19;1.52;;;0.77;;
75634;SDS011;64227;48.724;9.104;2024-03-02T14:41:44;0.52;;;0.50;;
75634;SDS011;64227;48.724;9.104;2024-03-02T14:44:10;0.93;;;0.60;;
75634;SDS011;64227;48.724;9.104;2024-03-02T14:46:35;0.98;;;0.70;;
75634;SDS011;64227;48.724;9.104;2024-03-02T14:49:01;0.95;;;0.80;;
75634;SDS011;64227;48.724;9.104;2024-03-02T14:51:26;0.68;;;0.52;;